Time;durP1;ratioP1;P1;durP2;ratioP2;P2;SDS_P1;SDS_P2;PMS_P1;PMS_P2;Temp;Humidity;BMP_temperature;BMP_pressure;BME280_temperature;BME280_humidity;BME280_pressure;Samples;Min_cycle;Max_cycle;Signal;HPM_P1;HPM_P2
2021/01/06 00:00:50;;;;;;;10.97;8.40;;;;;;;0.71;87.81;99603.11;120535;1151;104582;-83
2021/01/06 00:03:23;;;;;;;10.90;8.00;;;;;;;0.69;87.43;99600.55;120674;1150;104402;-83
2021/01/06 00:05:59;;;;;;;11.10;7.73;;;;;;;0.69;87.27;99605.69;120579;1151;103238;-82
2021/01/06 00:08:27;;;;;;;11.45;8.13;;;;;;;0.70;87.62;99601.41;120580;1150;101959;-83
2021/01/06 00:10:56;;;;;;;13.37;8.50;;;;;;;0.69;87.49;99609.96;120584;1151;104443;-83
2021/01/06 00:13:25;;;;;;;12.13;8.23;;;;;;;0.68;87.54;99603.13;120742;1150;104483;-83
2021/01/06 00:15:52;;;;;;;12.77;8.90;;;;;;;0.69;87.35;99609.96;120671;1151;104332;-81
2021/01/06 00:18:20;;;;;;;12.57;8.63;;;;;;;0.70;87.46;99616.80;120607;1150;104294;-83
2021/01/06 00:20:49;;;;;;;14.73;9.07;;;;;;;0.68;87.51;99613.39;120562;1153;104386;-83
2021/01/06 00:23:17;;;;;;;12.60;8.33;;;;;;;0.70;87.89;99617.66;120617;1150;104320;-82
2021/01/06 00:25:45;;;;;;;14.40;8.63;;;;;;;0.70;87.79;99612.52;120551;1151;104509;-83
2021/01/06 00:28:15;;;;;;;10.20;7.77;;;;;;;0.71;87.74;99614.23;120584;1151;104695;-83
2021/01/06 00:30:46;;;;;;;15.10;8.40;;;;;;;0.69;87.71;99610.81;120580;1150;104230;-83
2021/01/06 00:33:16;;;;;;;11.27;8.13;;;;;;;0.68;87.79;99606.55;120577;1150;104322;-83
2021/01/06 00:35:52;;;;;;;13.37;8.67;;;;;;;0.68;87.93;99608.26;120587;1151;103084;-83
2021/01/06 00:38:26;;;;;;;12.77;8.53;;;;;;;0.68;87.84;99610.82;120525;1150;104279;-83
2021/01/06 00:40:54;;;;;;;12.77;8.50;;;;;;;0.66;87.70;99617.67;120582;1150;104345;-83
2021/01/06 00:43:22;;;;;;;12.47;8.50;;;;;;;0.66;87.95;99615.11;120579;1151;104776;-83
2021/01/06 00:45:49;;;;;;;12.40;8.67;;;;;;;0.67;88.21;99614.25;120691;1150;104374;-83
2021/01/06 00:48:17;;;;;;;11.20;8.30;;;;;;;0.68;87.91;99616.81;120527;1151;104468;-83
2021/01/06 00:50:44;;;;;;;12.60;8.43;;;;;;;0.70;87.96;99616.80;120499;1151;104400;-83
2021/01/06 00:53:14;;;;;;;11.37;7.80;;;;;;;0.70;88.07;99614.23;120594;1151;104999;-83
2021/01/06 00:55:44;;;;;;;13.23;8.70;;;;;;;0.69;87.81;99617.66;120529;1150;104767;-82
2021/01/06 00:58:12;;;;;;;13.87;8.10;;;;;;;0.71;87.88;99615.94;120575;1151;102977;-82
2021/01/06 01:00:40;;;;;;;11.67;7.77;;;;;;;0.72;87.94;99631.37;120549;1150;104348;-82
2021/01/06 01:03:11;;;;;;;12.67;8.80;;;;;;;0.74;87.86;99627.08;120611;1150;104501;-82
2021/01/06 01:05:38;;;;;;;10.97;8.30;;;;;;;0.73;88.10;99630.51;120590;1151;104371;-82
2021/01/06 01:08:07;;;;;;;11.40;8.23;;;;;;;0.74;88.05;99628.80;120588;1151;103225;-82
2021/01/06 01:10:45;;;;;;;11.73;7.90;;;;;;;0.74;87.92;99628.80;120539;1150;103208;-82
2021/01/06 01:13:16;;;;;;;11.43;8.30;;;;;;;0.73;88.06;99634.79;120660;1150;104456;-82
2021/01/06 01:15:48;;;;;;;12.60;8.60;;;;;;;0.74;87.98;99628.80;120576;1151;104328;-83
2021/01/06 01:18:19;;;;;;;11.50;7.70;;;;;;;0.75;87.88;99630.50;120573;1151;104316;-83
2021/01/06 01:20:49;;;;;;;11.43;7.60;;;;;;;0.75;88.06;99628.79;120695;1151;104387;-83
2021/01/06 01:23:19;;;;;;;12.63;8.10;;;;;;;0.75;87.98;99636.48;120572;1151;104184;-83
2021/01/06 01:25:47;;;;;;;11.10;7.77;;;;;;;0.77;88.10;99641.61;120538;1151;103160;-83
2021/01/06 01:28:16;;;;;;;11.03;7.93;;;;;;;0.76;88.04;99633.06;120615;1150;104413;-83
2021/01/06 01:30:43;;;;;;;11.90;7.75;;;;;;;0.75;87.72;99631.35;120681;1151;104469;-83
2021/01/06 01:33:15;;;;;;;11.70;8.23;;;;;;;0.77;87.81;99639.05;120639;1151;105375;-83
2021/01/06 01:35:43;;;;;;;12.40;8.60;;;;;;;0.78;87.97;99630.48;120626;1151;104317;-83
2021/01/06 01:38:20;;;;;;;11.17;8.27;;;;;;;0.78;87.99;99633.05;120596;1151;104407;-83
2021/01/06 01:40:54;;;;;;;12.60;8.63;;;;;;;0.78;87.82;99631.34;120540;1150;104325;-83
2021/01/06 01:43:22;;;;;;;11.60;8.67;;;;;;;0.78;88.05;99636.48;120622;1151;104346;-83
2021/01/06 01:45:49;;;;;;;12.60;9.30;;;;;;;0.79;87.85;99635.61;120541;1151;104384;-83
2021/01/06 01:48:29;;;;;;;10.83;7.87;;;;;;;0.79;88.09;99629.63;120657;1150;104860;-83
2021/01/06 01:51:03;;;;;;;9.80;7.70;;;;;;;0.80;88.04;99633.91;120665;1149;104422;-83
2021/01/06 01:53:45;;;;;;;11.23;7.30;;;;;;;0.83;88.07;99645.01;120497;1150;102571;-83
2021/01/06 01:56:12;;;;;;;9.27;6.93;;;;;;;0.85;87.68;99642.44;120569;1150;104436;-81
2021/01/06 01:58:42;;;;;;;9.83;7.00;;;;;;;0.86;87.65;99645.00;120561;1151;104329;-83
2021/01/06 02:01:10;;;;;;;10.47;7.13;;;;;;;0.86;87.72;99639.01;120541;1151;104319;-83
2021/01/06 02:04:00;;;;;;;11.13;7.90;;;;;;;0.86;87.84;99644.14;120506;1150;104352;-83
2021/01/06 02:06:37;;;;;;;;;;;;;;;0.84;87.78;99645.86;120682;1151;104910;-83
2021/01/06 02:09:22;;;;;;;10.32;7.58;;;;;;;0.84;87.85;99645.86;120674;1150;104239;-82
2021/01/06 02:12:00;;;;;;;10.97;8.03;;;;;;;0.83;87.67;99651.86;120573;1150;104372;-83
2021/01/06 02:14:34;;;;;;;12.10;8.30;;;;;;;0.81;87.98;99651.02;120564;1150;104316;-82
2021/01/06 02:17:09;;;;;;;9.67;8.07;;;;;;;0.79;88.00;99651.02;120509;1150;103336;-83
2021/01/06 02:19:39;;;;;;;11.17;8.53;;;;;;;0.79;88.01;99643.31;120522;1151;104410;-83
2021/01/06 02:22:10;;;;;;;11.97;8.20;;;;;;;0.75;87.88;99653.60;120647;1151;104371;-82
2021/01/06 02:24:40;;;;;;;12.83;8.60;;;;;;;0.73;88.00;99639.92;120614;1151;103312;-83
2021/01/06 02:27:07;;;;;;;12.80;8.60;;;;;;;0.73;88.22;99652.75;120513;1149;104314;-83
2021/01/06 02:29:36;;;;;;;12.33;8.80;;;;;;;0.73;88.11;99643.34;120642;1150;104116;-83
2021/01/06 02:32:05;;;;;;;14.53;9.77;;;;;;;0.76;88.35;99647.61;120614;1150;104426;-82
2021/01/06 02:34:38;;;;;;;15.40;10.77;;;;;;;0.77;88.40;99646.75;120612;1149;104423;-83
2021/01/06 02:37:07;;;;;;;15.55;10.10;;;;;;;0.76;88.27;99660.44;120531;1151;104417;-81
2021/01/06 02:39:35;;;;;;;16.60;11.00;;;;;;;0.75;88.12;99656.17;120687;1151;101907;-81
2021/01/06 02:42:04;;;;;;;15.40;10.23;;;;;;;0.74;88.25;99650.18;120687;1150;104494;-82
2021/01/06 02:44:31;;;;;;;16.47;11.40;;;;;;;0.74;88.45;99642.48;120566;1151;104378;-83
2021/01/06 02:46:58;;;;;;;18.17;12.13;;;;;;;0.75;88.46;99643.34;120584;1151;104375;-83
2021/01/06 02:49:26;;;;;;;19.77;12.47;;;;;;;0.74;88.39;99642.48;120556;1150;104419;-83
2021/01/06 02:52:02;;;;;;;20.27;12.50;;;;;;;0.75;88.50;99636.48;120596;1151;104423;-83
2021/01/06 02:54:36;;;;;;;20.03;13.37;;;;;;;0.76;88.58;99650.17;120558;1151;104403;-83
2021/01/06 02:57:05;;;;;;;21.83;13.57;;;;;;;0.75;88.42;99640.77;120556;1151;104770;-83
2021/01/06 02:59:46;;;;;;;22.80;14.13;;;;;;;0.73;88.23;99639.92;120662;1150;104884;-83
2021/01/06 03:02:16;;;;;;;20.17;13.37;;;;;;;0.73;88.49;99642.48;120682;1151;104364;-83
2021/01/06 03:04:52;;;;;;;20.73;13.70;;;;;;;0.71;88.39;99645.03;120604;1150;104422;-83
2021/01/06 03:07:22;;;;;;;19.65;12.85;;;;;;;0.68;88.40;99650.17;120552;1151;102673;-83
2021/01/06 03:09:49;;;;;;;18.85;12.70;;;;;;;0.65;88.20;99639.06;120502;1151;104420;-83
2021/01/06 03:12:23;;;;;;;20.13;13.57;;;;;;;0.64;88.19;99647.62;120659;1150;104789;-83
2021/01/06 03:14:50;;;;;;;18.30;13.30;;;;;;;0.60;88.50;99647.63;120638;1151;104295;-83
2021/01/06 03:17:22;;;;;;;20.57;13.80;;;;;;;0.58;88.38;99649.35;120633;1151;104460;-83
2021/01/06 03:20:32;;;;;;;19.00;13.33;;;;;;;0.57;88.34;99657.91;120602;1151;104410;-83
2021/01/06 03:23:08;;;;;;;19.73;13.70;;;;;;;0.54;88.37;99652.78;120568;1150;104477;-82
2021/01/06 03:25:37;;;;;;;20.77;14.33;;;;;;;0.53;88.72;99656.17;120607;1151;104473;-82
2021/01/06 03:28:04;;;;;;;19.97;13.13;;;;;;;0.53;88.89;99656.17;120564;1151;104764;-82
2021/01/06 03:30:34;;;;;;;20.33;13.83;;;;;;;0.53;88.72;99658.73;120613;1151;102567;-82
2021/01/06 03:33:36;;;;;;;23.13;16.07;;;;;;;0.53;88.74;99660.45;120525;1150;104420;-82
2021/01/06 03:36:11;;;;;;;21.30;14.30;;;;;;;0.52;88.86;99657.03;120654;1150;104319;-82
2021/01/06 03:39:00;;;;;;;25.53;15.83;;;;;;;0.51;89.06;99657.89;120571;1150;104166;-82
2021/01/06 03:41:30;;;;;;;22.87;14.83;;;;;;;0.50;88.92;99656.19;120593;1151;104356;-82
2021/01/06 03:44:06;;;;;;;24.73;17.23;;;;;;;0.50;88.91;99655.33;120621;1149;104387;-82
2021/01/06 03:46:34;;;;;;;23.87;16.77;;;;;;;0.50;88.78;99663.88;120585;1151;104786;-82
2021/01/06 03:49:06;;;;;;;23.20;15.87;;;;;;;0.50;88.97;99665.59;120563;1151;104588;-82
2021/01/06 03:51:42;;;;;;;23.13;15.57;;;;;;;0.50;89.05;99663.88;120562;1151;104455;-82
2021/01/06 03:54:48;;;;;;;25.47;16.47;;;;;;;0.51;89.12;99657.89;120663;1149;104335;-82
2021/01/06 03:57:18;;;;;;;25.57;16.13;;;;;;;0.52;88.97;99662.16;120547;1150;104324;-82
2021/01/06 03:59:49;;;;;;;25.60;16.80;;;;;;;0.53;89.29;99651.05;120500;1150;104594;-82
2021/01/06 04:02:22;;;;;;;24.73;17.47;;;;;;;0.54;89.04;99657.91;120584;1150;104511;-82
2021/01/06 04:04:56;;;;;;;25.13;16.67;;;;;;;0.56;89.05;99661.33;120677;1151;104351;-82
2021/01/06 04:07:33;;;;;;;28.20;18.13;;;;;;;0.57;89.21;99655.34;120620;1151;104367;-82
2021/01/06 04:10:09;;;;;;;22.70;16.20;;;;;;;0.59;89.08;99650.20;120583;1151;103110;-82
2021/01/06 04:12:37;;;;;;;25.90;17.00;;;;;;;0.62;89.21;99646.77;120708;1151;104391;-81
2021/01/06 04:15:07;;;;;;;25.77;17.23;;;;;;;0.63;89.00;99651.91;120541;1150;104457;-80
2021/01/06 04:17:50;;;;;;;26.90;17.67;;;;;;;0.67;89.06;99658.73;120641;1151;102501;-83
2021/01/06 04:20:36;;;;;;;30.95;18.60;;;;;;;0.71;89.05;99649.30;120561;1151;104313;-82
2021/01/06 04:23:07;;;;;;;27.13;17.30;;;;;;;0.74;89.04;99660.45;120608;1152;104342;-82
2021/01/06 04:25:38;;;;;;;25.33;16.60;;;;;;;0.75;89.11;99661.30;120646;1151;101932;-82
2021/01/06 04:28:19;;;;;;;27.17;17.77;;;;;;;0.76;89.09;99650.17;120571;1149;104493;-82
2021/01/06 04:31:00;;;;;;;27.37;17.67;;;;;;;0.77;88.76;99649.31;120627;1150;104489;-83
2021/01/06 04:33:29;;;;;;;25.43;16.67;;;;;;;0.78;88.77;99658.72;120566;1150;104440;-83
2021/01/06 04:35:59;;;;;;;26.70;17.03;;;;;;;0.81;89.15;99653.58;120579;1151;104433;-83
2021/01/06 04:38:30;;;;;;;25.80;16.93;;;;;;;0.80;88.95;99659.57;120615;1151;104420;-82
2021/01/06 04:41:01;;;;;;;25.47;18.23;;;;;;;0.81;88.60;99666.41;120541;1150;104962;-82
2021/01/06 04:43:41;;;;;;;27.27;18.13;;;;;;;0.80;88.59;99659.57;120567;1150;104383;-82
2021/01/06 04:46:36;;;;;;;26.67;17.07;;;;;;;0.79;88.70;99665.56;120525;1150;104479;-82
2021/01/06 04:49:15;;;;;;;27.80;17.80;;;;;;;0.78;88.47;99674.13;120759;1151;104344;-82
2021/01/06 04:51:57;;;;;;;29.27;17.77;;;;;;;0.79;88.77;99673.27;120704;1151;104316;-83
2021/01/06 04:54:42;;;;;;;26.30;16.50;;;;;;;0.80;88.52;99680.11;120690;1150;104463;-82
2021/01/06 04:57:31;;;;;;;29.27;18.23;;;;;;;0.82;88.87;99678.39;120718;1150;103006;-82
2021/01/06 05:00:19;;;;;;;29.20;19.07;;;;;;;0.85;88.62;99680.94;120585;1151;104826;-82
2021/01/06 05:03:01;;;;;;;31.53;18.70;;;;;;;0.88;88.80;99683.50;120657;1150;104481;-83
2021/01/06 05:05:56;;;;;;;29.77;19.03;;;;;;;0.89;88.47;99682.64;120575;1151;104029;-82
2021/01/06 05:08:39;;;;;;;30.17;18.90;;;;;;;0.91;88.71;99683.52;120487;1150;104464;-81
2021/01/06 05:11:15;;;;;;;28.70;18.13;;;;;;;0.91;88.32;99683.52;120556;1150;104372;-83
2021/01/06 05:13:48;;;;;;;29.87;18.80;;;;;;;0.91;88.67;99683.52;120628;1150;104446;-83
2021/01/06 05:16:30;;;;;;;34.70;20.03;;;;;;;0.92;88.51;99685.23;120534;1151;104387;-83
2021/01/06 05:18:58;;;;;;;30.90;19.03;;;;;;;0.92;88.55;99682.66;120538;1151;104553;-83
2021/01/06 05:21:29;;;;;;;27.90;17.40;;;;;;;0.92;88.91;99697.21;120468;1150;104402;-82
2021/01/06 05:24:06;;;;;;;29.93;19.10;;;;;;;0.91;88.53;99696.36;120595;1151;104348;-82
2021/01/06 05:26:35;;;;;;;34.37;18.97;;;;;;;0.92;88.75;99692.93;120737;1151;104484;-82
2021/01/06 05:29:06;;;;;;;29.37;17.83;;;;;;;0.92;88.65;99692.08;120667;1151;104546;-82
2021/01/06 05:31:33;;;;;;;29.30;18.10;;;;;;;0.91;88.56;99691.22;120641;1150;104775;-82
2021/01/06 05:34:00;;;;;;;30.82;19.23;;;;;;;0.92;88.32;99698.06;120567;1151;104429;-82
2021/01/06 05:36:31;;;;;;;30.20;19.63;;;;;;;0.95;88.52;99694.63;120589;1151;104478;-82
2021/01/06 05:39:15;;;;;;;34.95;21.40;;;;;;;0.96;88.69;99692.06;120557;1151;104401;-82
2021/01/06 05:41:45;;;;;;;34.93;19.73;;;;;;;0.98;88.66;99692.05;120641;1150;104854;-82
2021/01/06 05:44:12;;;;;;;37.20;20.93;;;;;;;0.98;88.75;99694.63;120581;1151;104470;-81
2021/01/06 05:46:45;;;;;;;36.55;21.45;;;;;;;0.99;88.49;99692.05;120472;1151;104376;-83
2021/01/06 05:49:24;;;;;;;34.33;20.83;;;;;;;0.98;88.59;99698.04;120574;1150;104355;-83
2021/01/06 05:52:07;;;;;;;36.10;21.17;;;;;;;0.98;88.58;99702.32;120713;1151;104442;-82
2021/01/06 05:54:52;;;;;;;38.37;22.60;;;;;;;0.97;88.59;99698.91;120669;1151;104301;-82
2021/01/06 05:57:56;;;;;;;37.93;23.13;;;;;;;0.99;88.67;99702.31;120522;1151;104628;-83
2021/01/06 06:00:41;;;;;;;36.40;22.10;;;;;;;0.99;88.78;99704.89;120519;1151;104385;-81
2021/01/06 06:03:54;;;;;;;37.57;20.90;;;;;;;0.98;88.69;99704.89;120501;1151;104444;-82
2021/01/06 06:06:36;;;;;;;39.57;22.10;;;;;;;0.98;88.46;99708.31;120619;1151;103079;-83
2021/01/06 06:09:32;;;;;;;39.63;22.07;;;;;;;0.96;88.44;99712.59;120606;1151;104329;-81
2021/01/06 06:12:12;;;;;;;37.77;22.33;;;;;;;0.94;88.29;99714.32;120718;1150;104306;-83
2021/01/06 06:14:50;;;;;;;36.83;21.87;;;;;;;0.94;88.42;99718.60;120594;1150;104490;-80
2021/01/06 06:17:30;;;;;;;42.97;23.07;;;;;;;0.94;88.46;99708.33;120597;1150;104316;-83
2021/01/06 06:20:15;;;;;;;38.83;22.40;;;;;;;0.94;88.25;99718.60;120721;1151;104860;-82
2021/01/06 06:23:03;;;;;;;40.70;23.10;;;;;;;0.92;88.56;99713.47;120609;1151;105430;-82
2021/01/06 06:25:38;;;;;;;38.83;22.93;;;;;;;0.94;88.46;99721.16;120570;1151;104317;-82
2021/01/06 06:28:27;;;;;;;34.57;21.73;;;;;;;0.92;88.27;99715.19;120554;1150;104548;-83
2021/01/06 06:30:59;;;;;;;36.07;20.87;;;;;;;0.92;88.08;99725.45;120556;1151;102808;-83
2021/01/06 06:33:31;;;;;;;36.30;20.33;;;;;;;0.91;88.52;99729.73;120625;1151;104229;-82
2021/01/06 06:36:01;;;;;;;35.17;21.07;;;;;;;0.92;88.30;99725.45;120655;1150;104310;-82
2021/01/06 06:38:41;;;;;;;35.87;20.10;;;;;;;0.90;88.19;99728.88;120582;1150;104467;-82
2021/01/06 06:41:36;;;;;;;32.60;20.63;;;;;;;0.92;88.11;99721.17;120506;1151;104368;-83
2021/01/06 06:44:21;;;;;;;33.07;18.97;;;;;;;0.94;88.31;99737.42;120576;1150;104442;-83
2021/01/06 06:46:59;;;;;;;32.80;19.90;;;;;;;0.93;87.98;99732.30;120621;1150;104440;-82
2021/01/06 06:49:36;;;;;;;32.97;19.57;;;;;;;0.94;88.25;99737.42;120585;1151;104337;-83
2021/01/06 06:52:45;;;;;;;31.17;19.35;;;;;;;0.96;88.18;99732.28;120548;1150;103086;-82
2021/01/06 06:55:32;;;;;;;32.90;18.87;;;;;;;0.94;88.04;99739.14;119860;1154;104179;-82
2021/01/06 06:58:28;;;;;;;31.83;18.77;;;;;;;0.94;88.07;99747.70;120031;1153;104233;-83
2021/01/06 07:00:56;;;;;;;31.70;19.73;;;;;;;0.97;88.19;99742.55;119946;1154;104383;-83
2021/01/06 07:03:38;;;;;;;31.70;18.80;;;;;;;0.97;87.88;99739.98;120209;1153;104336;-81
2021/01/06 07:06:09;;;;;;;31.87;18.63;;;;;;;0.97;87.91;99744.27;119855;1154;104495;-82
2021/01/06 07:08:52;;;;;;;32.53;19.53;;;;;;;0.98;87.95;99746.83;119977;1154;104364;-82
2021/01/06 07:11:44;;;;;;;29.70;18.60;;;;;;;1.00;88.25;99749.39;119972;1154;104303;-83
2021/01/06 07:14:31;;;;;;;29.70;18.30;;;;;;;1.02;88.10;99748.53;119878;1154;104500;-82
2021/01/06 07:17:04;;;;;;;30.65;18.20;;;;;;;1.02;87.92;99743.39;119904;1154;104434;-82
2021/01/06 07:19:49;;;;;;;31.50;18.90;;;;;;;1.03;87.89;99750.23;119955;1154;104467;-83
2021/01/06 07:22:38;;;;;;;30.43;18.13;;;;;;;1.03;87.67;99750.23;120461;1154;104229;-82
2021/01/06 07:25:17;;;;;;;30.73;16.70;;;;;;;1.05;87.93;99752.80;120129;1154;103248;-82
2021/01/06 07:27:49;;;;;;;28.27;17.10;;;;;;;1.00;87.76;99752.81;120621;1153;104513;-81
2021/01/06 07:30:40;;;;;;;33.53;20.23;;;;;;;0.99;87.77;99755.38;120034;1154;104620;-83
2021/01/06 07:33:40;;;;;;;33.60;20.27;;;;;;;1.00;88.03;99760.52;120267;1151;104351;-82
2021/01/06 07:36:14;;;;;;;29.33;17.37;;;;;;;1.01;87.53;99764.80;120516;1150;104347;-83
2021/01/06 07:38:43;;;;;;;34.40;20.20;;;;;;;1.01;87.44;99769.08;120584;1151;104519;-83
2021/01/06 07:41:11;;;;;;;31.30;19.43;;;;;;;1.00;87.35;99773.35;120549;1151;104400;-83
2021/01/06 07:43:44;;;;;;;31.23;19.63;;;;;;;1.01;87.73;99772.50;120597;1151;104455;-81
2021/01/06 07:46:21;;;;;;;32.53;19.70;;;;;;;1.00;87.51;99775.92;120586;1151;104417;-82
2021/01/06 07:49:13;;;;;;;28.93;18.00;;;;;;;1.02;87.53;99783.62;120566;1150;104524;-82
2021/01/06 07:51:58;;;;;;;36.03;19.13;;;;;;;1.01;87.72;99787.91;120545;1151;104423;-83
2021/01/06 07:54:50;;;;;;;34.00;19.80;;;;;;;1.02;87.67;99787.05;120517;1151;104334;-82
2021/01/06 07:57:42;;;;;;;34.47;18.97;;;;;;;1.04;87.50;99785.33;120570;1150;103197;-82
2021/01/06 08:00:17;;;;;;;29.80;18.07;;;;;;;1.07;87.72;99781.89;120546;1151;104417;-82
2021/01/06 08:02:57;;;;;;;31.90;19.30;;;;;;;1.10;87.77;99792.19;120484;1150;104490;-82
2021/01/06 08:05:33;;;;;;;31.30;19.40;;;;;;;1.11;87.64;99783.62;120479;1151;104854;-82
2021/01/06 08:08:09;;;;;;;31.63;17.57;;;;;;;1.11;87.60;99794.76;120483;1151;104297;-82
2021/01/06 08:10:40;;;;;;;31.77;17.62;;;;;;;1.10;87.30;99792.19;120491;1151;104563;-82
2021/01/06 08:13:38;;;;;;;30.17;17.93;;;;;;;1.08;87.48;99789.63;120516;1151;104471;-82
2021/01/06 08:16:42;;;;;;;33.37;19.07;;;;;;;1.10;87.51;99797.33;120513;1151;104496;-82
2021/01/06 08:19:15;;;;;;;31.40;17.75;;;;;;;1.09;87.43;99799.05;120601;1151;104828;-81
2021/01/06 08:21:59;;;;;;;29.73;17.90;;;;;;;1.09;87.44;99801.61;120627;1151;104355;-81
2021/01/06 08:24:31;;;;;;;31.03;19.13;;;;;;;1.12;87.36;99800.75;120574;1151;104364;-82
2021/01/06 08:27:01;;;;;;;31.13;18.03;;;;;;;1.13;87.39;99793.03;120540;1150;104497;-82
2021/01/06 08:29:35;;;;;;;31.87;19.63;;;;;;;1.15;87.30;99796.45;120504;1151;104348;-82
2021/01/06 08:32:22;;;;;;;34.00;19.47;;;;;;;1.17;87.20;99793.88;120600;1151;104516;-81
2021/01/06 08:35:04;;;;;;;34.13;20.50;;;;;;;1.23;87.23;99795.58;120673;1151;104430;-82
2021/01/06 08:37:35;;;;;;;32.53;19.63;;;;;;;1.26;86.99;99795.56;120629;1151;102385;-82
2021/01/06 08:40:22;;;;;;;31.60;18.30;;;;;;;1.27;86.99;99797.30;120583;1151;104525;-82
2021/01/06 08:42:50;;;;;;;34.98;20.43;;;;;;;1.27;86.69;99792.17;120606;1151;104382;-81
2021/01/06 08:45:54;;;;;;;30.77;19.27;;;;;;;1.26;87.05;99799.02;120578;1154;104528;-82
2021/01/06 08:48:21;;;;;;;34.03;20.13;;;;;;;1.29;86.98;99795.59;120535;1150;104487;-82
2021/01/06 08:50:49;;;;;;;36.83;21.13;;;;;;;1.31;86.76;99796.44;120597;1151;104449;-82
2021/01/06 08:53:28;;;;;;;35.23;20.33;;;;;;;1.34;86.72;99797.28;120572;1151;105135;-84
2021/01/06 08:55:59;;;;;;;35.67;21.33;;;;;;;1.32;86.62;99798.14;120547;1151;104346;-83
2021/01/06 08:58:41;;;;;;;35.57;20.37;;;;;;;1.32;86.75;99785.30;120501;1151;103085;-83
2021/01/06 09:01:37;;;;;;;36.77;21.43;;;;;;;1.36;86.81;99799.84;120500;1151;104349;-83
2021/01/06 09:04:17;;;;;;;38.80;21.97;;;;;;;1.40;86.84;99792.11;120598;1151;104456;-83
2021/01/06 09:06:49;;;;;;;37.93;21.13;;;;;;;1.43;86.90;99801.53;120549;1151;104425;-82
2021/01/06 09:09:41;;;;;;;39.87;20.97;;;;;;;1.45;86.73;99799.84;120529;1151;104396;-82
2021/01/06 09:12:25;;;;;;;36.43;19.97;;;;;;;1.49;86.94;99796.39;120577;1151;104381;-82
2021/01/06 09:14:56;;;;;;;33.77;19.60;;;;;;;1.49;86.45;99791.25;120733;1150;104252;-83
2021/01/06 09:17:53;;;;;;;36.67;21.60;;;;;;;1.48;86.49;99790.40;120603;1151;102486;-81
2021/01/06 09:20:30;;;;;;;34.85;20.77;;;;;;;1.51;86.32;99795.52;120952;1150;104501;-81
2021/01/06 09:22:58;;;;;;;35.57;21.07;;;;;;;1.50;86.28;99793.81;120975;1150;104466;-82
2021/01/06 09:25:27;;;;;;;34.45;20.55;;;;;;;1.50;86.02;99792.96;120742;1151;104448;-82
2021/01/06 09:27:59;;;;;;;32.90;19.17;;;;;;;1.49;85.95;99786.97;120616;1150;104442;-83
2021/01/06 09:30:37;;;;;;;33.80;19.63;;;;;;;1.49;86.30;99793.82;120707;1150;102546;-82
2021/01/06 09:33:14;;;;;;;31.97;19.70;;;;;;;1.54;86.07;99789.52;120591;1151;104497;-83
2021/01/06 09:35:42;;;;;;;31.83;18.73;;;;;;;1.53;85.82;99795.52;120591;1151;104386;-83
2021/01/06 09:38:31;;;;;;;27.93;16.73;;;;;;;1.50;85.99;99788.67;120561;1150;104352;-82
2021/01/06 09:41:03;;;;;;;36.90;21.33;;;;;;;1.50;86.20;99792.96;120541;1150;104194;-82
2021/01/06 09:43:40;;;;;;;33.63;20.33;;;;;;;1.53;85.53;99786.95;120602;1151;104435;-83
2021/01/06 09:46:18;;;;;;;32.17;18.80;;;;;;;1.54;85.93;99792.08;120634;1151;104440;-82
2021/01/06 09:48:52;;;;;;;31.63;19.40;;;;;;;1.56;86.03;99790.36;120540;1150;104374;-82
2021/01/06 09:51:21;;;;;;;35.47;20.80;;;;;;;1.55;85.67;99791.23;120510;1151;103102;-82
2021/01/06 09:53:55;;;;;;;32.63;19.07;;;;;;;1.57;85.47;99788.64;120613;1151;104346;-82
2021/01/06 09:56:26;;;;;;;35.10;20.45;;;;;;;1.60;85.56;99784.34;120598;1151;104410;-82
2021/01/06 09:58:54;;;;;;;32.97;19.73;;;;;;;1.64;85.47;99793.78;120488;1151;105575;-82
2021/01/06 10:02:02;;;;;;;34.07;20.17;;;;;;;1.67;85.50;99786.05;120502;1151;104451;-82
2021/01/06 10:04:39;;;;;;;36.07;19.87;;;;;;;1.71;85.83;99785.17;120512;1151;104204;-82
2021/01/06 10:07:44;;;;;;;33.40;20.23;;;;;;;1.77;85.40;99792.00;120564;1151;104220;-82
2021/01/06 10:10:20;;;;;;;34.13;20.60;;;;;;;1.80;85.70;99785.16;120550;1150;103149;-81
2021/01/06 10:13:13;;;;;;;38.60;21.67;;;;;;;1.85;85.25;99794.56;120489;1151;105158;-83
2021/01/06 10:16:02;;;;;;;34.60;20.67;;;;;;;1.88;85.01;99799.69;120481;1151;104402;-83
2021/01/06 10:19:02;;;;;;;28.37;17.67;;;;;;;1.85;85.27;99797.13;120686;1151;104385;-83
2021/01/06 10:21:49;;;;;;;32.67;20.30;;;;;;;1.79;84.87;99793.70;120554;1151;104333;-83
2021/01/06 10:24:40;;;;;;;33.45;19.40;;;;;;;1.80;84.73;99794.59;120556;1150;104322;-83
2021/01/06 10:27:29;;;;;;;32.27;19.53;;;;;;;1.83;85.54;99786.86;120588;1151;104377;-81
2021/01/06 10:30:06;;;;;;;31.33;20.17;;;;;;;1.88;85.27;99781.69;120581;1151;104580;-83
2021/01/06 10:32:39;;;;;;;32.37;19.33;;;;;;;1.91;84.85;99774.80;120617;1151;104511;-83
2021/01/06 10:35:22;;;;;;;30.77;19.90;;;;;;;1.93;84.82;99772.22;120620;1150;104445;-83
2021/01/06 10:37:49;;;;;;;33.07;20.40;;;;;;;1.96;84.88;99769.62;120572;1151;104362;-83
2021/01/06 10:40:33;;;;;;;29.63;18.43;;;;;;;1.96;84.29;99777.34;120598;1150;104137;-83
2021/01/06 10:43:35;;;;;;;29.93;18.03;;;;;;;1.92;84.45;99770.52;120581;1152;104332;-83
2021/01/06 10:46:31;;;;;;;28.67;17.83;;;;;;;1.89;84.63;99770.53;120584;1151;102500;-83
2021/01/06 10:48:59;;;;;;;29.30;18.23;;;;;;;1.88;84.15;99768.83;120553;1150;104352;-83
2021/01/06 10:52:00;;;;;;;26.27;17.00;;;;;;;1.88;84.17;99772.25;120669;1150;104348;-83
2021/01/06 10:54:36;;;;;;;28.80;18.07;;;;;;;1.89;84.46;99771.39;120641;1150;105821;-82
2021/01/06 10:57:23;;;;;;;30.20;18.32;;;;;;;1.92;84.09;99767.94;120530;1150;104436;-83
2021/01/06 11:00:06;;;;;;;;;;;;;;;1.93;84.15;99761.94;120412;1151;103216;-82
2021/01/06 11:02:55;;;;;;;27.10;16.73;;;;;;;1.91;83.77;99768.80;120523;1150;104298;-83
2021/01/06 11:05:28;;;;;;;26.50;16.17;;;;;;;1.92;83.79;99755.08;120539;1151;104373;-83
2021/01/06 11:08:07;;;;;;;27.67;17.40;;;;;;;1.93;83.91;99757.64;120488;1150;104329;-82
2021/01/06 11:10:43;;;;;;;27.07;17.03;;;;;;;1.96;83.41;99764.48;120523;1150;104306;-83
2021/01/06 11:13:45;;;;;;;28.90;17.53;;;;;;;1.98;83.96;99760.22;120586;1150;104345;-82
2021/01/06 11:16:21;;;;;;;28.93;17.83;;;;;;;1.99;83.92;99751.64;120592;1150;104314;-82
2021/01/06 11:18:54;;;;;;;32.00;17.63;;;;;;;2.00;83.71;99754.20;120754;1150;104427;-82
2021/01/06 11:21:22;;;;;;;29.10;18.47;;;;;;;2.02;83.60;99754.19;120582;1151;104443;-82
2021/01/06 11:23:57;;;;;;;30.37;17.57;;;;;;;2.01;83.55;99755.91;120605;1151;104574;-82
2021/01/06 11:26:30;;;;;;;28.73;17.50;;;;;;;2.01;83.16;99745.62;120568;1149;104461;-83
2021/01/06 11:29:13;;;;;;;21.73;14.20;;;;;;;2.00;82.65;99745.62;120537;1151;104348;-83
2021/01/06 11:32:01;;;;;;;24.87;15.37;;;;;;;1.96;82.81;99736.20;120552;1151;104439;-82
2021/01/06 11:34:38;;;;;;;24.53;16.60;;;;;;;1.94;83.14;99737.92;120557;1151;103608;-83
2021/01/06 11:37:25;;;;;;;;;;;;;;;1.94;83.54;99738.78;120596;1151;104453;-83
2021/01/06 11:39:53;;;;;;;29.30;18.37;;;;;;;1.93;83.01;99738.79;120568;1151;103094;-83
2021/01/06 11:42:21;;;;;;;29.97;19.10;;;;;;;1.92;83.37;99734.51;120582;1151;104418;-83
2021/01/06 11:45:10;;;;;;;32.13;19.50;;;;;;;1.91;83.36;99732.80;120579;1151;101872;-82
2021/01/06 11:47:58;;;;;;;28.57;17.93;;;;;;;1.88;83.19;99735.39;120553;1150;103077;-82
2021/01/06 11:50:42;;;;;;;30.50;19.20;;;;;;;1.87;83.29;99725.97;120482;1152;104352;-82
2021/01/06 11:53:17;;;;;;;29.83;17.80;;;;;;;1.85;83.58;99732.84;120710;1151;104349;-82
2021/01/06 11:56:03;;;;;;;28.40;18.25;;;;;;;1.83;83.71;99737.14;120486;1150;103173;-83
2021/01/06 11:58:46;;;;;;;27.10;17.30;;;;;;;1.82;83.50;99733.72;120528;1151;104496;-83